Taloga, Oklahoma
Current Conditions -  °F | °C
As of 5:55 PM on Sunday 21 Dec 2014 (Local Time) from KJWG Reporting Station
Overcast Overcast  
Wind Chill: 42°   Ceiling: 2100
Heat Index: 47°   Visibility: 10mi
Dew Point: 47°   Wind: 10mph
Humidity: 99%   Direction: 150°SSE
Pressure: 29.7"   Gusts: 17mph
Location:  36.04°N, 98.96°W
Report Text: KJWG 212355Z AUTO 15009G15KT 10SM SCT014 BKN021 OVC028 08/08 A2970 RMK AO2 T00830081 10089 20070
Loading
Personal Weather Stations






























Interactive Weather Map New forecast layout! Learn more

10-Day Weather Forecast

Advertisements
Track Severe Weather on mobile